• Join FlightAware (Why Join?)
  • Login
  • US Flag 
11:36AM EDT


 

Airport Tracker/Info


-or-


 

Live Flight TrackerFlight Track Log ✈ AWI3551 ✈ 19-Jun-2013 ✈ KBUF - KPHL

Flight Track Log - Related Links

Times and Time Zones

All times are in EDT time to prevent confusion due to time zone crossing. See the AWI3551 flight status page for this flight to view local times or setup timezone preferences in your user account.

Time Position Orientation Groundspeed Altitude Reporting Facility
EDT Latitude Longitude Course Direction KTS MPH feet Rate Location/Type
05:36AM 42.9500 -78.7000 26° Northeast 147 169 1,800  Level Buffalo TRACON
05:37AM 43.0000 -78.6667 26° Northeast 196 226 3,800 1,740 Climbing Buffalo TRACON
05:38AM 42.9622 -78.6086 132° Southeast 214 246 6,000 1,560 Climbing Cleveland Center
05:39AM 42.8875 -78.6281 191° South 239 275 7,300 1,560 Climbing Cleveland Center
05:40AM 42.8064 -78.6278 180° South 278 320 9,200 1,620 Climbing Cleveland Center
05:41AM 42.7228 -78.6247 178° South 293 337 10,600 1,260 Climbing Cleveland Center
05:42AM 42.6269 -78.6247 180° South 314 361 11,800 1,380 Climbing Cleveland Center
05:43AM 42.5306 -78.5967 168° South 344 396 13,400 1,620 Climbing Cleveland Center
05:44AM 42.4278 -78.5578 164° South 367 422 15,100 1,620 Climbing Cleveland Center
05:45AM 42.3250 -78.5189 164° South 378 435 16,700 1,380 Climbing Cleveland Center
05:46AM 42.2222 -78.4775 163° South 383 441 17,900 1,200 Climbing Cleveland Center
05:47AM 42.1131 -78.4392 165° South 395 455 19,200 1,140 Climbing Cleveland Center
05:48AM 42.0039 -78.3953 163° South 405 466 20,200 960 Climbing Cleveland Center
05:49AM 41.8947 -78.3572 165° South 405 466 21,200 1,020 Climbing Cleveland Center
05:50AM 41.7811 -78.3136 164° South 410 472 22,300 900 Climbing Cleveland Center
05:51AM 41.6678 -78.2706 164° South 415 478 23,000 300 Climbing Cleveland Center
05:52AM 41.5564 -78.2272 164° South 421 484 23,000  Level Cleveland Center
05:53AM 41.4450 -78.1869 165° South 421 484 23,000  Level Cleveland Center
05:55AM 41.2975 -78.1311 164° South 404 465 23,000  Level New York Center
05:56AM 41.1894 -78.0917 165° South 404 465 23,000  Level New York Center
05:57AM 41.0792 -78.0522 165° South 410 472 23,000  Level New York Center
05:58AM 40.9692 -78.0103 164° South 410 472 23,000  Level New York Center
05:59AM 40.8761 -77.9317 147° Southeast 398 458 23,000  Level New York Center
06:00AM 40.7978 -77.8136 131° Southeast 403 464 23,000  Level New York Center
06:01AM 40.7303 -77.6836 124° Southeast 416 479 23,000  Level New York Center
06:02AM 40.6681 -77.5350 119° Southeast 439 505 23,000  Level New York Center
06:03AM 40.6033 -77.3892 120° Southeast 455 524 23,000  Level New York Center
06:04AM 40.5311 -77.2264 120° Southeast 466 536 23,000  Level New York Center
06:05AM 40.4661 -77.0783 120° Southeast 473 544 23,000  Level New York Center
06:06AM 40.4028 -76.9336 120° Southeast 473 544 23,000 -840 Level New York Center
06:07AM 40.3375 -76.7861 120° Southeast 473 544 21,400 -1,740 Descending New York Center
06:08AM 40.2756 -76.6503 121° Southeast 457 526 19,500 -1,920 Descending New York Center
06:09AM 40.2272 -76.5319 118° Southeast 425 489 17,600 -1,920 Descending New York Center
06:10AM 40.1686 -76.4047 121° Southeast 420 483 15,700 -2,040 Descending New York Center
06:11AM 40.1192 -76.2594 114° Southeast 410 472 13,600 -1,920 Descending New York Center
06:12AM 40.1089 -76.1203 95° East 390 449 11,800 -1,680 Descending New York Center
06:13AM 40.1000 -75.9947 95° East 369 425 10,300 -1,380 Descending New York Center
06:14AM 40.0919 -75.8911 96° East 329 379 9,100 -1,200 Descending New York Center
06:15AM 40.0806 -75.7681 97° East 308 354 8,000 -600 Descending New York Center
06:16AM 40.0744 -75.6644 94° East 297 342 8,000 -60 Level New York Center
06:17AM 40.0706 -75.5558 93° East 292 336 7,900 -720 Descending New York Center
06:18AM 40.0603 -75.4519 97° East 292 336 6,600 -960 Descending New York Center
06:19AM 39.9914 -75.4039 152° Southeast 268 308 6,000 -300 Descending New York Center
06:20AM 39.9361 -75.4300 200° South 238 274 6,000 -420 Level New York Center
06:21AM 39.9128 -75.4936 244° Southwest 182 209 5,200 -1,020 Descending New York Center
06:22AM 39.8908 -75.5706 250° West 198 228 4,000 -660 Descending New York Center
06:23AM 39.8617 -75.6172 231° Southwest 184 212 3,900 -540 Descending New York Center
06:24AM 39.8097 -75.6136 177° South 167 192 3,000 -480 Descending New York Center
06:25AM 39.8039 -75.5564 98° East 141 162 3,000  Level New York Center
06:26AM 39.8164 -75.5058 72° East 136 157 3,000 -240 Level New York Center
06:27AM 39.8292 -75.4419 75° East 160 184 2,600 -420 Descending New York Center